createdAt,value
2022-10-11T00:02:59.009Z,101249.63
2022-10-11T00:06:03.759Z,101250.47
2022-10-11T00:09:07.389Z,101250.06
2022-10-11T00:12:10.663Z,101251.72
2022-10-11T00:15:19.723Z,101248.44
2022-10-11T00:18:23.186Z,101245.59
2022-10-11T00:21:26.349Z,101236.06
2022-10-11T00:24:29.150Z,101234.19
2022-10-11T00:27:31.906Z,101239.25
2022-10-11T00:30:34.768Z,101236.78
2022-10-11T00:33:37.755Z,101232.25
2022-10-11T00:36:40.495Z,101230.97
2022-10-11T00:39:43.288Z,101225.38
2022-10-11T00:42:46.487Z,101233.69
2022-10-11T00:45:58.593Z,101231.34
2022-10-11T00:49:07.182Z,101230.09
2022-10-11T00:52:20.689Z,101238.63
2022-10-11T00:55:26.992Z,101231.59
2022-10-11T00:58:30.167Z,101228.16
2022-10-11T01:01:33.251Z,101222.25
2022-10-11T01:04:36.188Z,101218.59
2022-10-11T01:07:39.750Z,101230.22
2022-10-11T01:10:42.769Z,101228.47
2022-10-11T01:13:45.411Z,101228.03
2022-10-11T01:17:10.394Z,101227.81
2022-10-11T01:20:19.291Z,101229.31
2022-10-11T01:23:46.604Z,101233.75
2022-10-11T01:27:01.212Z,101228.81
2022-10-11T01:30:07.859Z,101233.81
2022-10-11T01:33:18.771Z,101220.22
2022-10-11T01:36:36.910Z,101221.63
2022-10-11T01:39:48.219Z,101211.91
2022-10-11T01:42:54.398Z,101219.22
2022-10-11T01:45:59.248Z,101221.22
2022-10-11T01:49:03.326Z,101216.25
2022-10-11T01:52:07.420Z,101214.91
2022-10-11T01:55:46.506Z,101206.66
2022-10-11T01:59:07.425Z,101220.34
2022-10-11T02:02:13.217Z,101216.59
2022-10-11T02:05:38.233Z,101212.50
2022-10-11T02:08:54.744Z,101207.38
2022-10-11T02:12:10.763Z,101205.78
2022-10-11T02:15:16.291Z,101216.00
2022-10-11T02:18:23.814Z,101211.81
2022-10-11T02:21:27.845Z,101213.28
2022-10-11T02:24:40.803Z,101216.66
2022-10-11T02:27:46.803Z,101218.69
2022-10-11T02:30:52.835Z,101214.22
2022-10-11T02:34:33.825Z,101213.13
2022-10-11T02:37:55.461Z,101219.84
2022-10-11T02:41:06.044Z,101222.59
2022-10-11T02:44:16.291Z,101216.75
2022-10-11T02:47:19.613Z,101218.78
2022-10-11T02:50:23.339Z,101217.69
2022-10-11T02:53:27.338Z,101208.47
2022-10-11T02:56:30.030Z,101201.19
2022-10-11T02:59:33.140Z,101213.03
2022-10-11T03:02:35.917Z,101212.94
2022-10-11T03:05:41.763Z,101212.66
2022-10-11T03:08:44.499Z,101217.63
2022-10-11T03:11:47.229Z,101217.78
2022-10-11T03:14:49.906Z,101220.28
2022-10-11T03:17:52.606Z,101221.47
2022-10-11T03:20:55.827Z,101216.72
2022-10-11T03:23:58.574Z,101223.47
2022-10-11T03:27:01.314Z,101213.53
2022-10-11T03:30:05.030Z,101218.53
2022-10-11T03:33:08.303Z,101216.06
2022-10-11T03:36:11.219Z,101222.09
2022-10-11T03:39:14.015Z,101221.91
2022-10-11T03:42:17.345Z,101225.50
2022-10-11T03:45:20.098Z,101217.72
2022-10-11T03:48:22.970Z,101223.13
2022-10-11T03:51:25.709Z,101233.91
2022-10-11T03:54:28.604Z,101228.50
2022-10-11T03:57:31.499Z,101220.19
2022-10-11T04:00:35.585Z,101231.72
2022-10-11T04:03:38.428Z,101227.78
2022-10-11T04:06:41.211Z,101227.88
2022-10-11T04:09:43.973Z,101225.41
2022-10-11T04:12:46.845Z,101228.72
2022-10-11T04:15:49.592Z,101225.84
2022-10-11T04:18:52.413Z,101219.19
2022-10-11T04:21:56.039Z,101239.75
2022-10-11T04:24:58.725Z,101223.97
2022-10-11T04:28:01.639Z,101232.34
2022-10-11T04:31:08.173Z,101232.97
2022-10-11T04:34:10.933Z,101229.53
2022-10-11T04:37:13.853Z,101233.53
2022-10-11T04:40:16.699Z,101236.56
2022-10-11T04:43:19.540Z,101241.84
2022-10-11T04:46:22.369Z,101236.66
2022-10-11T04:49:25.121Z,101238.47
2022-10-11T04:52:27.949Z,101241.50
2022-10-11T04:55:30.687Z,101241.66
2022-10-11T04:58:35.453Z,101241.38
2022-10-11T05:01:38.251Z,101249.69
2022-10-11T05:04:41.043Z,101244.75
2022-10-11T05:07:44.371Z,101246.13
2022-10-11T05:11:05.159Z,101249.06
2022-10-11T05:14:07.910Z,101245.03
2022-10-11T05:17:10.649Z,101248.97
2022-10-11T05:20:13.994Z,101263.09
2022-10-11T05:23:16.754Z,101270.69
2022-10-11T05:26:29.346Z,101273.03
2022-10-11T05:29:32.026Z,101275.53
2022-10-11T05:36:49.553Z,101276.13
2022-10-11T05:39:54.701Z,101284.69
2022-10-11T05:43:07.587Z,101278.50
2022-10-11T05:46:15.045Z,101293.47
2022-10-11T05:49:22.714Z,101291.22
2022-10-11T05:52:26.973Z,101297.16
2022-10-11T05:55:31.246Z,101298.50
2022-10-11T05:58:34.314Z,101303.09
2022-10-11T06:01:37.262Z,101304.28
2022-10-11T06:04:40.500Z,101302.03
2022-10-11T06:07:46.283Z,101302.84
2022-10-11T06:10:51.233Z,101315.97
2022-10-11T06:13:59.058Z,101313.44
2022-10-11T06:17:07.790Z,101318.47
2022-10-11T06:20:11.694Z,101325.44
2022-10-11T06:23:14.557Z,101330.22
2022-10-11T06:26:18.898Z,101325.22
2022-10-11T06:29:22.647Z,101325.06
2022-10-11T06:32:25.651Z,101332.13
2022-10-11T06:35:28.513Z,101328.59
2022-10-11T06:38:31.440Z,101338.59
2022-10-11T06:41:34.195Z,101331.91
2022-10-11T06:44:37.208Z,101342.00
2022-10-11T06:47:39.970Z,101343.63
2022-10-11T06:50:59.155Z,101341.19
2022-10-11T06:54:04.049Z,101334.72
2022-10-11T06:57:06.837Z,101335.38
2022-10-11T07:00:12.622Z,101342.22
2022-10-11T07:03:15.734Z,101330.22
2022-10-11T07:06:21.595Z,101339.34
2022-10-11T07:09:24.477Z,101335.94
2022-10-11T07:12:27.609Z,101330.78
2022-10-11T07:15:38.342Z,101335.13
2022-10-11T07:18:42.543Z,101340.88
2022-10-11T07:21:45.565Z,101329.75
2022-10-11T07:24:55.691Z,101336.03
2022-10-11T07:28:12.111Z,101331.41
2022-10-11T07:31:22.838Z,101342.28
2022-10-11T07:34:25.655Z,101332.59
2022-10-11T07:37:28.631Z,101340.09
2022-10-11T07:40:41.033Z,101338.91
2022-10-11T07:43:44.107Z,101329.28
2022-10-11T07:46:46.849Z,101330.94
2022-10-11T07:49:49.715Z,101335.06
2022-10-11T07:52:52.504Z,101340.66
2022-10-11T07:55:55.352Z,101332.00
2022-10-11T07:59:01.028Z,101334.91
2022-10-11T08:02:03.907Z,101343.13
2022-10-11T08:05:06.919Z,101332.69
2022-10-11T08:08:09.765Z,101329.19
2022-10-11T08:11:23.567Z,101335.25
2022-10-11T08:14:26.420Z,101347.59
2022-10-11T08:17:30.006Z,101345.69
2022-10-11T08:20:33.485Z,101345.25
2022-10-11T08:23:36.375Z,101338.50
2022-10-11T08:26:39.934Z,101348.47
2022-10-11T08:29:42.776Z,101342.88
2022-10-11T08:32:45.637Z,101347.81
2022-10-11T08:35:49.773Z,101343.53
2022-10-11T08:38:52.630Z,101339.72
2022-10-11T08:42:07.111Z,101343.63
2022-10-11T08:45:21.946Z,101341.38
2022-10-11T08:48:45.159Z,101341.75
2022-10-11T08:51:53.360Z,101337.34
2022-10-11T08:55:06.628Z,101339.44
2022-10-11T08:58:15.258Z,101343.28
2022-10-11T09:01:25.356Z,101336.59
2022-10-11T09:04:28.467Z,101333.44
2022-10-11T09:07:49.784Z,101336.66
2022-10-11T09:11:25.716Z,101339.03
2022-10-11T09:14:40.640Z,101338.41
2022-10-11T09:17:55.689Z,101332.81
2022-10-11T09:21:20.000Z,101339.84
2022-10-11T09:24:47.455Z,101340.13
2022-10-11T09:28:02.786Z,101329.09
2022-10-11T09:31:10.779Z,101328.44
2022-10-11T09:34:54.195Z,101318.59
2022-10-11T09:38:37.703Z,101325.47
2022-10-11T09:41:47.018Z,101322.59
2022-10-11T09:44:51.501Z,101324.75
2022-10-11T09:47:57.890Z,101317.91
2022-10-11T09:51:23.283Z,101304.72
2022-10-11T09:54:42.990Z,101318.78
2022-10-11T09:57:55.315Z,101317.38
2022-10-11T10:01:08.603Z,101313.31
2022-10-11T10:04:19.186Z,101317.59
2022-10-11T10:07:22.788Z,101322.44
2022-10-11T10:10:43.076Z,101318.44
2022-10-11T10:13:57.271Z,101307.97
2022-10-11T10:17:20.859Z,101310.44
2022-10-11T10:20:34.312Z,101313.44
2022-10-11T10:23:39.550Z,101310.88
2022-10-11T10:26:42.711Z,101306.91
2022-10-11T10:30:08.815Z,101304.06
2022-10-11T10:33:12.097Z,101312.41
2022-10-11T10:36:34.570Z,101311.03
2022-10-11T10:39:52.068Z,101301.09
2022-10-11T10:42:59.481Z,101299.31
2022-10-11T10:46:30.603Z,101308.13
2022-10-11T10:49:55.013Z,101309.31
2022-10-11T10:53:23.106Z,101294.44
2022-10-11T10:56:40.617Z,101295.53
2022-10-11T10:59:49.765Z,101285.91
2022-10-11T11:03:13.609Z,101295.00
2022-10-11T11:06:23.355Z,101288.00
2022-10-11T11:09:55.601Z,101280.84
2022-10-11T11:13:20.033Z,101283.47
2022-10-11T11:16:22.891Z,101275.91
2022-10-11T11:19:57.361Z,101280.16
2022-10-11T11:23:51.193Z,101280.44
2022-10-11T11:27:23.635Z,101278.97
2022-10-11T11:30:57.781Z,101275.50
2022-10-11T11:34:23.469Z,101276.09
2022-10-11T11:37:34.672Z,101271.69
2022-10-11T11:40:45.361Z,101267.38
2022-10-11T11:44:03.734Z,101256.28
2022-10-11T11:47:17.997Z,101267.69
2022-10-11T11:50:31.537Z,101274.84
2022-10-11T11:53:59.340Z,101280.28
2022-10-11T11:57:36.197Z,101283.31
2022-10-11T12:00:49.808Z,101278.03
2022-10-11T12:03:56.467Z,101279.78
2022-10-11T12:07:17.687Z,101275.72
2022-10-11T12:10:40.890Z,101278.44
2022-10-11T12:13:44.757Z,101275.19
2022-10-11T12:17:24.883Z,101276.53
2022-10-11T12:20:33.901Z,101277.66
2022-10-11T12:23:43.767Z,101280.78
2022-10-11T12:26:49.266Z,101267.09
2022-10-11T12:29:52.012Z,101266.09
2022-10-11T12:33:06.379Z,101261.66
2022-10-11T12:36:24.053Z,101267.22
2022-10-11T12:39:27.079Z,101259.81
2022-10-11T12:42:36.984Z,101254.44
2022-10-11T12:45:39.907Z,101257.13
2022-10-11T12:48:54.854Z,101249.50
2022-10-11T12:52:19.211Z,101254.19
2022-10-11T12:55:43.640Z,101245.84
2022-10-11T12:58:50.067Z,101256.16
2022-10-11T13:01:55.768Z,101250.22
2022-10-11T13:05:23.940Z,101246.16
2022-10-11T13:08:35.029Z,101237.41
2022-10-11T13:11:46.441Z,101240.88
2022-10-11T13:15:05.455Z,101235.41
2022-10-11T13:18:14.425Z,101230.28
2022-10-11T13:21:21.583Z,101238.06
2022-10-11T13:24:28.800Z,101240.63
2022-10-11T13:27:31.931Z,101236.81
2022-10-11T13:30:37.410Z,101239.13
2022-10-11T13:33:44.570Z,101239.28
2022-10-11T13:36:47.514Z,101232.69
2022-10-11T13:39:55.633Z,101245.66
2022-10-11T13:42:58.917Z,101238.53
2022-10-11T13:46:06.784Z,101240.84
2022-10-11T13:49:37.989Z,101251.41
2022-10-11T13:52:58.837Z,101246.97
2022-10-11T13:56:06.371Z,101241.72
2022-10-11T13:59:18.415Z,101249.66
2022-10-11T14:02:23.868Z,101243.41
2022-10-11T14:05:45.164Z,101247.41
2022-10-11T14:08:53.699Z,101246.94
2022-10-11T14:12:16.480Z,101247.63
2022-10-11T14:15:35.895Z,101251.13
2022-10-11T14:18:41.355Z,101249.94
2022-10-11T14:21:45.857Z,101255.16
2022-10-11T14:24:48.928Z,101254.75
2022-10-11T14:27:52.115Z,101255.34
2022-10-11T14:30:55.469Z,101254.09
2022-10-11T14:33:59.047Z,101253.56
2022-10-11T14:37:01.900Z,101255.31
2022-10-11T14:40:14.717Z,101257.50
2022-10-11T14:43:17.435Z,101261.75
2022-10-11T14:46:25.408Z,101260.56
2022-10-11T14:49:30.475Z,101269.66
2022-10-11T14:52:33.278Z,101269.28
2022-10-11T14:55:39.780Z,101269.56
2022-10-11T14:58:42.882Z,101272.66
2022-10-11T15:01:46.937Z,101271.59
2022-10-11T15:04:49.678Z,101270.13
2022-10-11T15:07:52.663Z,101275.47
2022-10-11T15:10:55.381Z,101267.47
2022-10-11T15:13:58.312Z,101267.56
2022-10-11T15:17:01.030Z,101268.00
2022-10-11T15:20:04.583Z,101275.28
2022-10-11T15:23:09.954Z,101274.59
2022-10-11T15:26:18.116Z,101275.47
2022-10-11T15:29:22.453Z,101274.94
2022-10-11T15:32:25.183Z,101281.69
2022-10-11T15:35:29.739Z,101278.91
2022-10-11T15:38:32.683Z,101283.66
2022-10-11T15:41:36.298Z,101279.59
2022-10-11T15:44:39.086Z,101286.22
2022-10-11T15:47:41.917Z,101279.31
2022-10-11T15:50:45.812Z,101284.16
2022-10-11T15:53:48.653Z,101283.41
2022-10-11T15:56:51.713Z,101278.59
2022-10-11T15:59:54.589Z,101285.66
2022-10-11T16:02:59.545Z,101287.75
2022-10-11T16:06:05.572Z,101285.44
2022-10-11T16:09:08.723Z,101280.06
2022-10-11T16:12:11.526Z,101285.09
2022-10-11T16:15:14.956Z,101294.44
2022-10-11T16:18:20.301Z,101299.25
2022-10-11T16:21:24.297Z,101307.09
2022-10-11T16:24:27.578Z,101312.72
2022-10-11T16:27:30.940Z,101321.25
2022-10-11T16:30:34.830Z,101319.00
2022-10-11T16:33:46.094Z,101326.50
2022-10-11T16:36:49.306Z,101323.94
2022-10-11T16:39:52.149Z,101330.56
2022-10-11T16:42:54.829Z,101335.84
2022-10-11T16:45:57.818Z,101331.75
2022-10-11T16:49:00.962Z,101335.72
2022-10-11T16:52:04.634Z,101335.50
2022-10-11T16:55:07.791Z,101340.75
2022-10-11T16:58:11.172Z,101342.81
2022-10-11T17:01:14.469Z,101346.31
2022-10-11T17:04:17.366Z,101348.78
2022-10-11T17:07:21.304Z,101347.03
2022-10-11T17:10:39.451Z,101351.81
2022-10-11T17:13:42.503Z,101349.94
2022-10-11T17:16:46.051Z,101350.75
2022-10-11T17:19:49.021Z,101352.28
2022-10-11T17:22:51.830Z,101352.41
2022-10-11T17:25:54.610Z,101355.66
2022-10-11T17:28:59.741Z,101362.91
2022-10-11T17:32:03.710Z,101365.94
2022-10-11T17:35:06.854Z,101358.13
2022-10-11T17:38:09.545Z,101369.31
2022-10-11T17:41:12.758Z,101366.56
2022-10-11T17:44:18.847Z,101356.88
2022-10-11T17:47:21.611Z,101361.63
2022-10-11T17:50:24.309Z,101362.09
2022-10-11T17:53:27.126Z,101361.97
2022-10-11T17:56:35.087Z,101363.38
2022-10-11T17:59:40.261Z,101375.47
2022-10-11T18:02:42.994Z,101364.75
2022-10-11T18:05:45.793Z,101367.28
2022-10-11T18:08:48.873Z,101361.28
2022-10-11T18:11:51.875Z,101367.25
2022-10-11T18:14:54.694Z,101374.22
2022-10-11T18:17:58.658Z,101370.59
2022-10-11T18:21:01.637Z,101376.78
2022-10-11T18:24:08.173Z,101369.19
2022-10-11T18:27:11.087Z,101372.47
2022-10-11T18:30:14.843Z,101376.53
2022-10-11T18:33:17.585Z,101376.22
2022-10-11T18:36:26.943Z,101374.47
2022-10-11T18:39:29.997Z,101374.09
2022-10-11T18:42:33.038Z,101367.56
2022-10-11T18:45:35.784Z,101374.28
2022-10-11T18:48:43.760Z,101373.25
2022-10-11T18:51:46.816Z,101370.53
2022-10-11T18:54:49.625Z,101371.16
2022-10-11T18:57:52.457Z,101364.91
2022-10-11T19:00:55.562Z,101364.19
2022-10-11T19:04:00.071Z,101371.78
2022-10-11T19:07:03.350Z,101375.34
2022-10-11T19:10:06.795Z,101372.38
2022-10-11T19:13:09.746Z,101384.44
2022-10-11T19:16:17.210Z,101378.72
2022-10-11T19:19:25.769Z,101374.63
2022-10-11T19:22:28.536Z,101383.84
2022-10-11T19:25:34.958Z,101379.38
2022-10-11T19:28:37.845Z,101391.28
2022-10-11T19:31:43.366Z,101396.34
2022-10-11T19:34:46.138Z,101384.72
2022-10-11T19:37:49.080Z,101385.78
2022-10-11T19:40:52.444Z,101391.75
2022-10-11T19:43:58.363Z,101391.81
2022-10-11T19:47:05.261Z,101383.13
2022-10-11T19:50:09.356Z,101396.34
2022-10-11T19:53:12.182Z,101397.53
2022-10-11T19:56:18.060Z,101390.63
2022-10-11T19:59:21.082Z,101392.47
2022-10-11T20:02:23.866Z,101395.50
2022-10-11T20:05:26.588Z,101399.94
2022-10-11T20:08:31.482Z,101400.75
2022-10-11T20:11:34.388Z,101400.56
2022-10-11T20:14:37.152Z,101405.25
2022-10-11T20:17:48.914Z,101411.78
2022-10-11T20:20:53.086Z,101409.25
2022-10-11T20:24:01.487Z,101410.81
2022-10-11T20:27:05.690Z,101413.09
2022-10-11T20:30:08.848Z,101408.09
2022-10-11T20:33:11.696Z,101411.53
2022-10-11T20:36:22.460Z,101413.50
2022-10-11T20:39:25.504Z,101406.59
2022-10-11T20:42:29.963Z,101419.81
2022-10-11T20:45:32.784Z,101417.63
2022-10-11T20:48:36.754Z,101416.28
2022-10-11T20:51:42.167Z,101414.50
2022-10-11T20:54:44.985Z,101419.63
2022-10-11T20:57:47.844Z,101419.69
2022-10-11T21:00:50.621Z,101418.09
2022-10-11T21:03:53.842Z,101417.28
2022-10-11T21:06:56.583Z,101415.66
2022-10-11T21:09:59.425Z,101423.09
2022-10-11T21:13:02.674Z,101432.97
2022-10-11T21:16:12.878Z,101426.38
2022-10-11T21:19:16.257Z,101425.59
2022-10-11T21:22:19.475Z,101424.38
2022-10-11T21:25:22.316Z,101422.94
2022-10-11T21:28:25.139Z,101419.22
2022-10-11T21:31:32.897Z,101422.50
2022-10-11T21:34:36.675Z,101422.50
2022-10-11T21:37:39.440Z,101415.13
2022-10-11T21:40:42.286Z,101423.09
2022-10-11T21:43:45.449Z,101425.13
2022-10-11T21:47:05.992Z,101420.22
2022-10-11T21:50:10.186Z,101426.38
2022-10-11T21:53:12.850Z,101421.66
2022-10-11T21:56:15.587Z,101429.19
2022-10-11T21:59:18.318Z,101419.59
2022-10-11T22:02:21.022Z,101416.28
2022-10-11T22:05:24.340Z,101421.59
2022-10-11T22:08:27.180Z,101423.00
2022-10-11T22:11:30.208Z,101432.19
2022-10-11T22:14:33.106Z,101436.44
2022-10-11T22:17:35.978Z,101430.53
2022-10-11T22:20:38.882Z,101426.78
2022-10-11T22:23:43.444Z,101434.97
2022-10-11T22:26:46.271Z,101428.63
2022-10-11T22:29:49.070Z,101423.09
2022-10-11T22:32:52.325Z,101434.97
2022-10-11T22:35:56.562Z,101429.19
2022-10-11T22:39:00.093Z,101433.69
2022-10-11T22:42:02.777Z,101433.47
2022-10-11T22:45:05.790Z,101429.56
2022-10-11T22:48:09.146Z,101426.38
2022-10-11T22:51:11.891Z,101430.44
2022-10-11T22:54:14.759Z,101436.19
2022-10-11T22:57:17.791Z,101435.00
2022-10-11T23:00:21.620Z,101431.09
2022-10-11T23:03:25.133Z,101437.81
2022-10-11T23:06:27.908Z,101433.91
2022-10-11T23:09:31.707Z,101438.38
2022-10-11T23:12:34.881Z,101444.88
2022-10-11T23:15:40.719Z,101445.47
2022-10-11T23:18:43.686Z,101445.13
2022-10-11T23:21:46.966Z,101447.19
2022-10-11T23:24:49.883Z,101447.41
2022-10-11T23:27:52.524Z,101445.81
2022-10-11T23:30:55.348Z,101451.78
2022-10-11T23:33:58.134Z,101438.47
2022-10-11T23:37:01.928Z,101439.72
2022-10-11T23:40:05.226Z,101442.38
2022-10-11T23:43:08.094Z,101426.59
2022-10-11T23:46:11.279Z,101420.81
2022-10-11T23:49:17.611Z,101440.09
2022-10-11T23:52:20.523Z,101436.44
2022-10-11T23:55:23.499Z,101439.50
2022-10-11T23:58:26.611Z,101431.75
